メインページ
METAR-TAF:

METAR-TAF

空港 :

カラマズー / バトルクリーク, ミシガン州, アメリカ合衆国

緯度: 42-13-45N, 経度: 085-32-47W, 海抜: 266m

現時点の気象観測

当レポートは42分前の05:53(UTC)に作成
南東の風 4kt
気温 12°C
湿度 38%
気圧 1016 hPa
視程: 16.1km
高度7000ftの雲は散在している
高度9500ftの曇り

METAR: KAZO 040553Z AUTO 13004KT 10SM SCT070 OVC095 12/M02 A3001 RMK AO2 SLP162 T01221022 10156 20089 56008

時間: 02:35 (06:35 UTC)

予報

当レポートは55分前の05:40(UTC)に作成
予報は04日の 06時(UTC)から 05日の 06時(UTC)まで有効
南東の風 5kt
視程: 10km
高度10000ftの曇り
04日の 1600時(UTC)から
西/北西の風 8kt
視程: 8.0km
高度900ftの曇り
靄, 近辺でにわか雨
04日の 1800時(UTC)から
西/北西の風 9kt
視程: 8.0km
高度900ftの曇り
04日の 2100時(UTC)から
北西の風 11kt
視程: 10km
高度1900ftの曇り
05日の 0000時(UTC)から
北西の風 10kt
視程: 10km
高度5000ftの千切れ雲あり

TAF: KAZO 040540Z 0406/0506 13005KT P6SM OVC100 FM041600 29008KT 5SM BR VCSH OVC009 FM041800 30009KT 5SM BR OVC009 FM042100 32011KT P6SM OVC019 FM050000 32010KT P6SM BKN050

4,000以上の空港の気象観測と天気予報(METAR報とTAF報)

利用可能な観測所は地図上に黄色い丸と赤い丸で示す。

丸の上にカーソルを重ねると観測所名を参照できる。

次にクリックすると気象観測と天気予報を参照できる。

マップの切り替え:黒色「×」印の緑ボタンをクリックして拡大、「-」印の緑ボタンをクリックして縮小、緑色の三角印をクリックして隣りの地図に切り替え


METAR-TAF: